sensor_id;sensor_type;location;lat;lon;timestamp;P1;durP1;ratioP1;P2;durP2;ratioP2
6378;SDS011;3222;48.858;10.128;2022-07-23T00:01:18;4.05;;;3.75;;
6378;SDS011;3222;48.858;10.128;2022-07-23T00:03:45;3.90;;;3.42;;
6378;SDS011;3222;48.858;10.128;2022-07-23T00:06:10;4.82;;;3.50;;
6378;SDS011;3222;48.858;10.128;2022-07-23T00:08:36;3.78;;;3.47;;
6378;SDS011;3222;48.858;10.128;2022-07-23T00:11:02;4.15;;;3.72;;
6378;SDS011;3222;48.858;10.128;2022-07-23T00:13:28;3.90;;;3.38;;
6378;SDS011;3222;48.858;10.128;2022-07-23T00:15:54;3.70;;;3.40;;
6378;SDS011;3222;48.858;10.128;2022-07-23T00:18:20;4.38;;;3.92;;
6378;SDS011;3222;48.858;10.128;2022-07-23T00:20:46;4.10;;;3.10;;
6378;SDS011;3222;48.858;10.128;2022-07-23T00:23:12;5.18;;;3.30;;
6378;SDS011;3222;48.858;10.128;2022-07-23T00:25:38;3.30;;;3.00;;
6378;SDS011;3222;48.858;10.128;2022-07-23T00:28:04;5.20;;;3.20;;
6378;SDS011;3222;48.858;10.128;2022-07-23T00:30:30;5.07;;;2.97;;
6378;SDS011;3222;48.858;10.128;2022-07-23T00:33:04;3.63;;;3.30;;
6378;SDS011;3222;48.858;10.128;2022-07-23T00:35:34;3.10;;;2.80;;
6378;SDS011;3222;48.858;10.128;2022-07-23T00:38:01;3.45;;;3.15;;
6378;SDS011;3222;48.858;10.128;2022-07-23T00:40:28;3.22;;;3.03;;
6378;SDS011;3222;48.858;10.128;2022-07-23T00:42:55;3.05;;;2.78;;
6378;SDS011;3222;48.858;10.128;2022-07-23T00:45:21;3.53;;;3.20;;
6378;SDS011;3222;48.858;10.128;2022-07-23T00:47:47;3.70;;;2.90;;
6378;SDS011;3222;48.858;10.128;2022-07-23T00:50:13;3.70;;;3.40;;
6378;SDS011;3222;48.858;10.128;2022-07-23T00:52:39;4.85;;;2.95;;
6378;SDS011;3222;48.858;10.128;2022-07-23T00:55:06;3.95;;;3.55;;
6378;SDS011;3222;48.858;10.128;2022-07-23T00:57:33;4.03;;;2.90;;
6378;SDS011;3222;48.858;10.128;2022-07-23T00:59:59;3.28;;;2.97;;
6378;SDS011;3222;48.858;10.128;2022-07-23T01:02:25;5.13;;;3.33;;
6378;SDS011;3222;48.858;10.128;2022-07-23T01:04:51;5.60;;;2.90;;
6378;SDS011;3222;48.858;10.128;2022-07-23T01:07:17;3.47;;;3.17;;
6378;SDS011;3222;48.858;10.128;2022-07-23T01:09:44;4.88;;;3.00;;
6378;SDS011;3222;48.858;10.128;2022-07-23T01:12:11;3.28;;;2.95;;
6378;SDS011;3222;48.858;10.128;2022-07-23T01:14:38;3.10;;;2.90;;
6378;SDS011;3222;48.858;10.128;2022-07-23T01:17:04;4.78;;;3.00;;
6378;SDS011;3222;48.858;10.128;2022-07-23T01:19:30;2.92;;;2.72;;
6378;SDS011;3222;48.858;10.128;2022-07-23T01:21:56;3.35;;;3.05;;
6378;SDS011;3222;48.858;10.128;2022-07-23T01:24:23;6.88;;;3.17;;
6378;SDS011;3222;48.858;10.128;2022-07-23T01:27:15;4.72;;;3.60;;
6378;SDS011;3222;48.858;10.128;2022-07-23T01:29:43;3.42;;;2.97;;
6378;SDS011;3222;48.858;10.128;2022-07-23T01:32:14;2.70;;;2.50;;
6378;SDS011;3222;48.858;10.128;2022-07-23T01:34:40;3.63;;;2.95;;
6378;SDS011;3222;48.858;10.128;2022-07-23T01:37:06;4.13;;;3.00;;
6378;SDS011;3222;48.858;10.128;2022-07-23T01:39:32;4.45;;;3.13;;
6378;SDS011;3222;48.858;10.128;2022-07-23T01:41:57;3.40;;;3.10;;
6378;SDS011;3222;48.858;10.128;2022-07-23T01:44:24;3.70;;;3.40;;
6378;SDS011;3222;48.858;10.128;2022-07-23T01:46:50;3.40;;;2.97;;
6378;SDS011;3222;48.858;10.128;2022-07-23T01:49:17;3.40;;;3.10;;
6378;SDS011;3222;48.858;10.128;2022-07-23T01:52:03;3.30;;;3.10;;
6378;SDS011;3222;48.858;10.128;2022-07-23T01:54:47;4.18;;;3.00;;
6378;SDS011;3222;48.858;10.128;2022-07-23T01:57:13;3.35;;;3.10;;
6378;SDS011;3222;48.858;10.128;2022-07-23T01:59:39;3.42;;;3.13;;
6378;SDS011;3222;48.858;10.128;2022-07-23T02:02:05;3.35;;;3.05;;
6378;SDS011;3222;48.858;10.128;2022-07-23T02:04:31;3.65;;;3.22;;
6378;SDS011;3222;48.858;10.128;2022-07-23T02:07:00;4.93;;;3.25;;
6378;SDS011;3222;48.858;10.128;2022-07-23T02:09:26;3.15;;;2.55;;
6378;SDS011;3222;48.858;10.128;2022-07-23T02:11:52;4.07;;;3.20;;
6378;SDS011;3222;48.858;10.128;2022-07-23T02:14:18;3.40;;;3.10;;
6378;SDS011;3222;48.858;10.128;2022-07-23T02:16:45;5.20;;;2.88;;
6378;SDS011;3222;48.858;10.128;2022-07-23T02:19:10;3.35;;;3.05;;
6378;SDS011;3222;48.858;10.128;2022-07-23T02:21:36;4.85;;;2.88;;
6378;SDS011;3222;48.858;10.128;2022-07-23T02:24:02;3.03;;;2.83;;
6378;SDS011;3222;48.858;10.128;2022-07-23T02:26:28;3.40;;;3.00;;
6378;SDS011;3222;48.858;10.128;2022-07-23T02:28:55;3.55;;;3.25;;
6378;SDS011;3222;48.858;10.128;2022-07-23T02:31:21;3.13;;;2.72;;
6378;SDS011;3222;48.858;10.128;2022-07-23T02:33:47;3.30;;;3.00;;
6378;SDS011;3222;48.858;10.128;2022-07-23T02:36:13;3.40;;;3.10;;
6378;SDS011;3222;48.858;10.128;2022-07-23T02:38:40;3.03;;;2.83;;
6378;SDS011;3222;48.858;10.128;2022-07-23T02:41:06;3.05;;;2.85;;
6378;SDS011;3222;48.858;10.128;2022-07-23T02:43:31;3.13;;;2.72;;
6378;SDS011;3222;48.858;10.128;2022-07-23T02:45:57;3.20;;;2.92;;
6378;SDS011;3222;48.858;10.128;2022-07-23T02:48:23;3.38;;;3.10;;
6378;SDS011;3222;48.858;10.128;2022-07-23T02:50:48;3.13;;;2.92;;
6378;SDS011;3222;48.858;10.128;2022-07-23T02:53:19;3.47;;;3.17;;
6378;SDS011;3222;48.858;10.128;2022-07-23T02:55:45;3.75;;;2.95;;
6378;SDS011;3222;48.858;10.128;2022-07-23T02:58:11;3.78;;;3.33;;
6378;SDS011;3222;48.858;10.128;2022-07-23T03:00:36;3.42;;;3.13;;
6378;SDS011;3222;48.858;10.128;2022-07-23T03:03:02;3.42;;;3.13;;
6378;SDS011;3222;48.858;10.128;2022-07-23T03:05:29;3.00;;;2.80;;
6378;SDS011;3222;48.858;10.128;2022-07-23T03:07:54;3.78;;;3.05;;
6378;SDS011;3222;48.858;10.128;2022-07-23T03:10:20;3.50;;;3.20;;
6378;SDS011;3222;48.858;10.128;2022-07-23T03:12:46;3.13;;;2.80;;
6378;SDS011;3222;48.858;10.128;2022-07-23T03:15:12;3.30;;;3.03;;
6378;SDS011;3222;48.858;10.128;2022-07-23T03:17:38;3.38;;;3.08;;
6378;SDS011;3222;48.858;10.128;2022-07-23T03:20:04;3.75;;;3.15;;
6378;SDS011;3222;48.858;10.128;2022-07-23T03:22:30;3.70;;;3.30;;
6378;SDS011;3222;48.858;10.128;2022-07-23T03:24:55;3.08;;;2.70;;
6378;SDS011;3222;48.858;10.128;2022-07-23T03:27:32;3.85;;;2.85;;
6378;SDS011;3222;48.858;10.128;2022-07-23T03:29:58;4.13;;;3.70;;
6378;SDS011;3222;48.858;10.128;2022-07-23T03:32:24;3.78;;;3.00;;
6378;SDS011;3222;48.858;10.128;2022-07-23T03:34:50;3.42;;;3.10;;
6378;SDS011;3222;48.858;10.128;2022-07-23T03:37:17;3.30;;;3.00;;
6378;SDS011;3222;48.858;10.128;2022-07-23T03:39:44;3.50;;;3.20;;
6378;SDS011;3222;48.858;10.128;2022-07-23T03:42:10;5.05;;;3.00;;
6378;SDS011;3222;48.858;10.128;2022-07-23T03:44:36;3.92;;;3.38;;
6378;SDS011;3222;48.858;10.128;2022-07-23T03:47:03;3.20;;;2.90;;
6378;SDS011;3222;48.858;10.128;2022-07-23T03:49:29;3.72;;;3.17;;
6378;SDS011;3222;48.858;10.128;2022-07-23T03:51:55;3.10;;;2.83;;
6378;SDS011;3222;48.858;10.128;2022-07-23T03:54:21;3.30;;;3.00;;
6378;SDS011;3222;48.858;10.128;2022-07-23T03:56:46;3.70;;;3.40;;
6378;SDS011;3222;48.858;10.128;2022-07-23T03:59:12;3.40;;;3.17;;
6378;SDS011;3222;48.858;10.128;2022-07-23T04:01:38;3.23;;;2.90;;
6378;SDS011;3222;48.858;10.128;2022-07-23T04:04:04;3.40;;;3.10;;
6378;SDS011;3222;48.858;10.128;2022-07-23T04:06:30;3.30;;;3.10;;
6378;SDS011;3222;48.858;10.128;2022-07-23T04:08:58;3.73;;;2.97;;
6378;SDS011;3222;48.858;10.128;2022-07-23T04:11:24;3.58;;;3.28;;
6378;SDS011;3222;48.858;10.128;2022-07-23T04:13:49;3.87;;;2.97;;
6378;SDS011;3222;48.858;10.128;2022-07-23T04:16:15;3.65;;;3.35;;
6378;SDS011;3222;48.858;10.128;2022-07-23T04:18:41;3.33;;;3.13;;
6378;SDS011;3222;48.858;10.128;2022-07-23T04:21:14;5.00;;;2.95;;
6378;SDS011;3222;48.858;10.128;2022-07-23T04:23:40;4.25;;;3.50;;
6378;SDS011;3222;48.858;10.128;2022-07-23T04:26:06;3.65;;;3.33;;
6378;SDS011;3222;48.858;10.128;2022-07-23T04:28:33;4.05;;;3.17;;
6378;SDS011;3222;48.858;10.128;2022-07-23T04:31:00;3.65;;;3.35;;
6378;SDS011;3222;48.858;10.128;2022-07-23T04:33:26;3.65;;;3.00;;
6378;SDS011;3222;48.858;10.128;2022-07-23T04:35:54;3.33;;;3.13;;
6378;SDS011;3222;48.858;10.128;2022-07-23T04:38:20;3.47;;;3.17;;
6378;SDS011;3222;48.858;10.128;2022-07-23T04:40:48;4.45;;;3.35;;
6378;SDS011;3222;48.858;10.128;2022-07-23T04:43:14;4.45;;;4.05;;
6378;SDS011;3222;48.858;10.128;2022-07-23T04:45:45;3.45;;;3.15;;
6378;SDS011;3222;48.858;10.128;2022-07-23T04:48:11;2.97;;;2.70;;
6378;SDS011;3222;48.858;10.128;2022-07-23T04:50:37;3.33;;;3.07;;
6378;SDS011;3222;48.858;10.128;2022-07-23T04:53:03;3.85;;;3.53;;
6378;SDS011;3222;48.858;10.128;2022-07-23T04:55:30;3.90;;;3.50;;
6378;SDS011;3222;48.858;10.128;2022-07-23T04:57:56;3.60;;;3.25;;
6378;SDS011;3222;48.858;10.128;2022-07-23T05:00:22;3.20;;;3.00;;
6378;SDS011;3222;48.858;10.128;2022-07-23T05:02:48;3.85;;;3.42;;
6378;SDS011;3222;48.858;10.128;2022-07-23T05:05:13;3.33;;;3.03;;
6378;SDS011;3222;48.858;10.128;2022-07-23T05:07:41;3.60;;;3.30;;
6378;SDS011;3222;48.858;10.128;2022-07-23T05:10:07;3.50;;;3.20;;
6378;SDS011;3222;48.858;10.128;2022-07-23T05:12:33;3.58;;;3.28;;
6378;SDS011;3222;48.858;10.128;2022-07-23T05:14:58;3.97;;;3.00;;
6378;SDS011;3222;48.858;10.128;2022-07-23T05:17:25;4.80;;;3.38;;
6378;SDS011;3222;48.858;10.128;2022-07-23T05:19:51;3.55;;;3.10;;
6378;SDS011;3222;48.858;10.128;2022-07-23T05:22:17;3.22;;;2.72;;
6378;SDS011;3222;48.858;10.128;2022-07-23T05:24:43;3.40;;;3.10;;
6378;SDS011;3222;48.858;10.128;2022-07-23T05:27:09;3.63;;;3.33;;
6378;SDS011;3222;48.858;10.128;2022-07-23T05:29:34;3.67;;;2.80;;
6378;SDS011;3222;48.858;10.128;2022-07-23T05:32:00;3.30;;;3.00;;
6378;SDS011;3222;48.858;10.128;2022-07-23T05:34:28;3.50;;;3.20;;
6378;SDS011;3222;48.858;10.128;2022-07-23T05:36:55;3.30;;;3.00;;
6378;SDS011;3222;48.858;10.128;2022-07-23T05:39:21;6.28;;;3.08;;
6378;SDS011;3222;48.858;10.128;2022-07-23T05:41:47;4.40;;;3.17;;
6378;SDS011;3222;48.858;10.128;2022-07-23T05:44:12;3.60;;;3.00;;
6378;SDS011;3222;48.858;10.128;2022-07-23T05:46:41;3.50;;;3.20;;
6378;SDS011;3222;48.858;10.128;2022-07-23T05:49:09;3.25;;;2.95;;
6378;SDS011;3222;48.858;10.128;2022-07-23T05:51:47;4.15;;;3.33;;
6378;SDS011;3222;48.858;10.128;2022-07-23T05:54:15;3.80;;;3.50;;
6378;SDS011;3222;48.858;10.128;2022-07-23T05:56:41;3.65;;;3.35;;
6378;SDS011;3222;48.858;10.128;2022-07-23T05:59:07;4.68;;;3.33;;
6378;SDS011;3222;48.858;10.128;2022-07-23T06:01:33;3.93;;;3.13;;
6378;SDS011;3222;48.858;10.128;2022-07-23T06:04:05;3.58;;;3.28;;
6378;SDS011;3222;48.858;10.128;2022-07-23T06:06:35;3.33;;;3.05;;
6378;SDS011;3222;48.858;10.128;2022-07-23T06:09:01;3.57;;;3.27;;
6378;SDS011;3222;48.858;10.128;2022-07-23T06:11:27;3.80;;;3.30;;
6378;SDS011;3222;48.858;10.128;2022-07-23T06:13:53;3.30;;;3.00;;
6378;SDS011;3222;48.858;10.128;2022-07-23T06:16:23;3.35;;;3.15;;
6378;SDS011;3222;48.858;10.128;2022-07-23T06:18:49;3.42;;;3.13;;
6378;SDS011;3222;48.858;10.128;2022-07-23T06:21:14;3.92;;;3.60;;
6378;SDS011;3222;48.858;10.128;2022-07-23T06:23:40;3.27;;;2.97;;
6378;SDS011;3222;48.858;10.128;2022-07-23T06:26:07;3.33;;;3.10;;
6378;SDS011;3222;48.858;10.128;2022-07-23T06:28:33;4.47;;;3.20;;
6378;SDS011;3222;48.858;10.128;2022-07-23T06:30:58;6.60;;;3.33;;
6378;SDS011;3222;48.858;10.128;2022-07-23T06:33:24;3.50;;;3.20;;
6378;SDS011;3222;48.858;10.128;2022-07-23T06:35:49;4.03;;;3.73;;
6378;SDS011;3222;48.858;10.128;2022-07-23T06:38:15;3.75;;;3.45;;
6378;SDS011;3222;48.858;10.128;2022-07-23T06:40:41;3.28;;;2.95;;
6378;SDS011;3222;48.858;10.128;2022-07-23T06:43:06;3.65;;;3.35;;
6378;SDS011;3222;48.858;10.128;2022-07-23T06:45:36;3.90;;;3.50;;
6378;SDS011;3222;48.858;10.128;2022-07-23T06:48:02;4.20;;;3.10;;
6378;SDS011;3222;48.858;10.128;2022-07-23T06:50:28;3.77;;;3.00;;
6378;SDS011;3222;48.858;10.128;2022-07-23T06:52:54;3.70;;;3.40;;
6378;SDS011;3222;48.858;10.128;2022-07-23T06:55:19;3.33;;;3.03;;
6378;SDS011;3222;48.858;10.128;2022-07-23T06:57:45;4.13;;;3.75;;
6378;SDS011;3222;48.858;10.128;2022-07-23T07:00:11;3.63;;;3.33;;
6378;SDS011;3222;48.858;10.128;2022-07-23T07:02:37;3.67;;;3.38;;
6378;SDS011;3222;48.858;10.128;2022-07-23T07:05:04;3.17;;;2.97;;
6378;SDS011;3222;48.858;10.128;2022-07-23T07:07:30;3.90;;;3.60;;
6378;SDS011;3222;48.858;10.128;2022-07-23T07:09:55;4.47;;;3.38;;
6378;SDS011;3222;48.858;10.128;2022-07-23T07:12:21;3.42;;;3.13;;
6378;SDS011;3222;48.858;10.128;2022-07-23T07:14:47;4.00;;;3.60;;
6378;SDS011;3222;48.858;10.128;2022-07-23T07:17:12;3.58;;;3.28;;
6378;SDS011;3222;48.858;10.128;2022-07-23T07:19:38;3.70;;;3.40;;
6378;SDS011;3222;48.858;10.128;2022-07-23T07:22:04;3.80;;;3.47;;
6378;SDS011;3222;48.858;10.128;2022-07-23T07:24:29;4.63;;;3.60;;
6378;SDS011;3222;48.858;10.128;2022-07-23T07:26:55;4.00;;;3.60;;
6378;SDS011;3222;48.858;10.128;2022-07-23T07:29:20;3.75;;;3.45;;
6378;SDS011;3222;48.858;10.128;2022-07-23T07:31:46;3.70;;;3.40;;
6378;SDS011;3222;48.858;10.128;2022-07-23T07:34:12;3.58;;;3.28;;
6378;SDS011;3222;48.858;10.128;2022-07-23T07:36:38;4.78;;;4.10;;
6378;SDS011;3222;48.858;10.128;2022-07-23T07:39:04;4.45;;;3.50;;
6378;SDS011;3222;48.858;10.128;2022-07-23T07:41:30;5.68;;;3.63;;
6378;SDS011;3222;48.858;10.128;2022-07-23T07:43:56;5.20;;;3.35;;
6378;SDS011;3222;48.858;10.128;2022-07-23T07:46:22;3.80;;;3.50;;
6378;SDS011;3222;48.858;10.128;2022-07-23T07:48:49;4.68;;;3.60;;
6378;SDS011;3222;48.858;10.128;2022-07-23T07:51:15;4.22;;;3.70;;
6378;SDS011;3222;48.858;10.128;2022-07-23T07:53:41;4.20;;;3.80;;
6378;SDS011;3222;48.858;10.128;2022-07-23T07:56:07;3.88;;;3.58;;
6378;SDS011;3222;48.858;10.128;2022-07-23T07:58:32;3.65;;;3.35;;
6378;SDS011;3222;48.858;10.128;2022-07-23T08:00:58;4.22;;;3.83;;
6378;SDS011;3222;48.858;10.128;2022-07-23T08:03:24;4.00;;;3.60;;
6378;SDS011;3222;48.858;10.128;2022-07-23T08:05:49;4.10;;;3.78;;
6378;SDS011;3222;48.858;10.128;2022-07-23T08:08:15;4.00;;;3.65;;
6378;SDS011;3222;48.858;10.128;2022-07-23T08:10:41;3.83;;;3.50;;
6378;SDS011;3222;48.858;10.128;2022-07-23T08:13:07;4.32;;;3.78;;
6378;SDS011;3222;48.858;10.128;2022-07-23T08:15:32;5.53;;;3.72;;
6378;SDS011;3222;48.858;10.128;2022-07-23T08:17:58;3.78;;;3.47;;
6378;SDS011;3222;48.858;10.128;2022-07-23T08:20:25;3.90;;;3.60;;
6378;SDS011;3222;48.858;10.128;2022-07-23T08:22:55;3.95;;;3.65;;
6378;SDS011;3222;48.858;10.128;2022-07-23T08:25:27;4.07;;;3.65;;
6378;SDS011;3222;48.858;10.128;2022-07-23T08:28:01;4.57;;;3.80;;
6378;SDS011;3222;48.858;10.128;2022-07-23T08:30:28;4.22;;;3.92;;
6378;SDS011;3222;48.858;10.128;2022-07-23T08:32:58;4.13;;;3.72;;
6378;SDS011;3222;48.858;10.128;2022-07-23T08:35:28;5.28;;;3.97;;
6378;SDS011;3222;48.858;10.128;2022-07-23T08:37:56;3.83;;;3.53;;
6378;SDS011;3222;48.858;10.128;2022-07-23T08:40:23;4.50;;;4.10;;
6378;SDS011;3222;48.858;10.128;2022-07-23T08:42:51;4.03;;;3.70;;
6378;SDS011;3222;48.858;10.128;2022-07-23T08:45:18;4.22;;;3.85;;
6378;SDS011;3222;48.858;10.128;2022-07-23T08:47:47;4.07;;;3.67;;
6378;SDS011;3222;48.858;10.128;2022-07-23T08:50:17;4.35;;;3.95;;
6378;SDS011;3222;48.858;10.128;2022-07-23T08:52:43;4.47;;;4.00;;
6378;SDS011;3222;48.858;10.128;2022-07-23T08:55:10;4.53;;;3.85;;
6378;SDS011;3222;48.858;10.128;2022-07-23T08:57:36;5.45;;;4.25;;
6378;SDS011;3222;48.858;10.128;2022-07-23T09:00:03;4.22;;;3.92;;
6378;SDS011;3222;48.858;10.128;2022-07-23T09:02:30;4.05;;;3.75;;
6378;SDS011;3222;48.858;10.128;2022-07-23T09:04:56;4.35;;;3.83;;
6378;SDS011;3222;48.858;10.128;2022-07-23T09:07:21;4.45;;;4.05;;
6378;SDS011;3222;48.858;10.128;2022-07-23T09:09:48;5.50;;;4.00;;
6378;SDS011;3222;48.858;10.128;2022-07-23T09:12:33;5.07;;;4.18;;
6378;SDS011;3222;48.858;10.128;2022-07-23T09:15:08;4.70;;;4.30;;
6378;SDS011;3222;48.858;10.128;2022-07-23T09:17:38;5.10;;;4.50;;
6378;SDS011;3222;48.858;10.128;2022-07-23T09:20:07;5.00;;;4.00;;
6378;SDS011;3222;48.858;10.128;2022-07-23T09:22:34;4.45;;;4.03;;
6378;SDS011;3222;48.858;10.128;2022-07-23T09:25:04;4.60;;;4.18;;
6378;SDS011;3222;48.858;10.128;2022-07-23T09:27:48;4.88;;;3.60;;
6378;SDS011;3222;48.858;10.128;2022-07-23T09:30:25;4.97;;;4.15;;
6378;SDS011;3222;48.858;10.128;2022-07-23T09:38:09;6.20;;;4.63;;
6378;SDS011;3222;48.858;10.128;2022-07-23T09:40:35;6.43;;;4.53;;
6378;SDS011;3222;48.858;10.128;2022-07-23T09:43:01;4.32;;;3.92;;
6378;SDS011;3222;48.858;10.128;2022-07-23T09:45:27;5.30;;;4.22;;
6378;SDS011;3222;48.858;10.128;2022-07-23T09:47:55;4.70;;;4.25;;
6378;SDS011;3222;48.858;10.128;2022-07-23T09:50:38;6.07;;;4.57;;
6378;SDS011;3222;48.858;10.128;2022-07-23T09:53:04;4.90;;;4.50;;
6378;SDS011;3222;48.858;10.128;2022-07-23T09:55:33;4.00;;;3.70;;
6378;SDS011;3222;48.858;10.128;2022-07-23T09:58:07;4.20;;;3.90;;
6378;SDS011;3222;48.858;10.128;2022-07-23T10:00:42;4.40;;;4.00;;
6378;SDS011;3222;48.858;10.128;2022-07-23T10:03:09;4.50;;;4.10;;
6378;SDS011;3222;48.858;10.128;2022-07-23T10:05:40;4.32;;;3.92;;
6378;SDS011;3222;48.858;10.128;2022-07-23T10:08:20;4.47;;;4.05;;
6378;SDS011;3222;48.858;10.128;2022-07-23T10:10:48;4.40;;;4.00;;
6378;SDS011;3222;48.858;10.128;2022-07-23T10:13:34;4.38;;;3.97;;
6378;SDS011;3222;48.858;10.128;2022-07-23T10:16:19;4.60;;;3.90;;
6378;SDS011;3222;48.858;10.128;2022-07-23T10:18:46;3.95;;;3.65;;
6378;SDS011;3222;48.858;10.128;2022-07-23T10:21:12;4.07;;;3.67;;
6378;SDS011;3222;48.858;10.128;2022-07-23T10:23:47;3.58;;;3.28;;
6378;SDS011;3222;48.858;10.128;2022-07-23T10:26:25;4.63;;;4.22;;
6378;SDS011;3222;48.858;10.128;2022-07-23T10:29:07;3.75;;;3.55;;
6378;SDS011;3222;48.858;10.128;2022-07-23T10:31:38;4.32;;;3.78;;
6378;SDS011;3222;48.858;10.128;2022-07-23T10:39:26;4.15;;;3.70;;
6378;SDS011;3222;48.858;10.128;2022-07-23T10:42:14;6.13;;;3.70;;
6378;SDS011;3222;48.858;10.128;2022-07-23T10:47:08;3.65;;;3.35;;
6378;SDS011;3222;48.858;10.128;2022-07-23T10:49:34;3.80;;;3.50;;
6378;SDS011;3222;48.858;10.128;2022-07-23T10:54:47;4.68;;;4.28;;
6378;SDS011;3222;48.858;10.128;2022-07-23T10:57:15;4.45;;;3.97;;
6378;SDS011;3222;48.858;10.128;2022-07-23T11:00:26;5.47;;;3.75;;
6378;SDS011;3222;48.858;10.128;2022-07-23T11:02:37;8.00;;;3.47;;
6378;SDS011;3222;48.858;10.128;2022-07-23T11:05:04;4.13;;;3.78;;
6378;SDS011;3222;48.858;10.128;2022-07-23T11:07:32;5.00;;;3.72;;
6378;SDS011;3222;48.858;10.128;2022-07-23T11:09:59;5.18;;;3.50;;
6378;SDS011;3222;48.858;10.128;2022-07-23T11:17:36;4.15;;;3.85;;
6378;SDS011;3222;48.858;10.128;2022-07-23T11:25:13;3.95;;;3.65;;
6378;SDS011;3222;48.858;10.128;2022-07-23T11:27:53;3.97;;;3.58;;
6378;SDS011;3222;48.858;10.128;2022-07-23T11:32:51;4.25;;;3.85;;
6378;SDS011;3222;48.858;10.128;2022-07-23T11:35:28;4.13;;;3.70;;
6378;SDS011;3222;48.858;10.128;2022-07-23T11:40:43;4.20;;;3.90;;
6378;SDS011;3222;48.858;10.128;2022-07-23T11:43:11;3.83;;;3.53;;
6378;SDS011;3222;48.858;10.128;2022-07-23T11:45:38;4.65;;;3.90;;
6378;SDS011;3222;48.858;10.128;2022-07-23T11:48:08;4.30;;;3.90;;
6378;SDS011;3222;48.858;10.128;2022-07-23T11:50:40;6.28;;;4.43;;
6378;SDS011;3222;48.858;10.128;2022-07-23T11:53:06;4.25;;;3.88;;
6378;SDS011;3222;48.858;10.128;2022-07-23T11:55:32;4.50;;;4.10;;
6378;SDS011;3222;48.858;10.128;2022-07-23T11:57:58;4.30;;;3.90;;
6378;SDS011;3222;48.858;10.128;2022-07-23T12:00:24;4.03;;;3.63;;
6378;SDS011;3222;48.858;10.128;2022-07-23T12:02:54;4.20;;;3.80;;
6378;SDS011;3222;48.858;10.128;2022-07-23T12:05:34;4.72;;;4.20;;
6378;SDS011;3222;48.858;10.128;2022-07-23T12:08:02;4.65;;;4.18;;
6378;SDS011;3222;48.858;10.128;2022-07-23T12:10:33;3.83;;;3.40;;
6378;SDS011;3222;48.858;10.128;2022-07-23T12:15:44;4.43;;;4.03;;
6378;SDS011;3222;48.858;10.128;2022-07-23T12:18:16;4.03;;;3.72;;
6378;SDS011;3222;48.858;10.128;2022-07-23T12:20:48;5.22;;;4.03;;
6378;SDS011;3222;48.858;10.128;2022-07-23T12:23:16;4.32;;;3.83;;
6378;SDS011;3222;48.858;10.128;2022-07-23T12:25:45;4.20;;;3.80;;
6378;SDS011;3222;48.858;10.128;2022-07-23T12:28:16;5.28;;;4.72;;
6378;SDS011;3222;48.858;10.128;2022-07-23T12:30:44;4.65;;;4.20;;
6378;SDS011;3222;48.858;10.128;2022-07-23T12:33:15;4.13;;;3.70;;
6378;SDS011;3222;48.858;10.128;2022-07-23T12:36:05;4.32;;;3.92;;
6378;SDS011;3222;48.858;10.128;2022-07-23T12:38:43;5.07;;;4.07;;
6378;SDS011;3222;48.858;10.128;2022-07-23T12:41:13;4.00;;;3.70;;
6378;SDS011;3222;48.858;10.128;2022-07-23T12:43:40;4.05;;;3.70;;
6378;SDS011;3222;48.858;10.128;2022-07-23T12:46:18;3.78;;;3.47;;
6378;SDS011;3222;48.858;10.128;2022-07-23T12:51:18;4.38;;;3.90;;
6378;SDS011;3222;48.858;10.128;2022-07-23T12:53:49;5.18;;;3.90;;
6378;SDS011;3222;48.858;10.128;2022-07-23T12:56:33;4.70;;;3.75;;
6378;SDS011;3222;48.858;10.128;2022-07-23T13:02:14;4.32;;;3.35;;
6378;SDS011;3222;48.858;10.128;2022-07-23T13:04:23;7.20;;;3.75;;
6378;SDS011;3222;48.858;10.128;2022-07-23T13:06:50;3.97;;;3.58;;
6378;SDS011;3222;48.858;10.128;2022-07-23T13:09:19;4.07;;;3.67;;
6378;SDS011;3222;48.858;10.128;2022-07-23T13:11:46;4.60;;;3.63;;
6378;SDS011;3222;48.858;10.128;2022-07-23T13:14:13;4.90;;;3.58;;
6378;SDS011;3222;48.858;10.128;2022-07-23T13:16:40;3.63;;;3.38;;
6378;SDS011;3222;48.858;10.128;2022-07-23T13:19:06;4.45;;;3.40;;
6378;SDS011;3222;48.858;10.128;2022-07-23T13:21:32;3.58;;;3.28;;
6378;SDS011;3222;48.858;10.128;2022-07-23T13:23:58;3.95;;;3.65;;
6378;SDS011;3222;48.858;10.128;2022-07-23T13:26:25;3.95;;;3.10;;
6378;SDS011;3222;48.858;10.128;2022-07-23T13:28:51;3.85;;;3.50;;
6378;SDS011;3222;48.858;10.128;2022-07-23T13:31:17;4.78;;;3.50;;
6378;SDS011;3222;48.858;10.128;2022-07-23T13:33:43;5.07;;;3.22;;
6378;SDS011;3222;48.858;10.128;2022-07-23T13:36:09;3.55;;;3.30;;
6378;SDS011;3222;48.858;10.128;2022-07-23T13:38:35;4.10;;;3.60;;
6378;SDS011;3222;48.858;10.128;2022-07-23T13:41:00;3.30;;;3.00;;
6378;SDS011;3222;48.858;10.128;2022-07-23T13:43:28;3.53;;;3.30;;
6378;SDS011;3222;48.858;10.128;2022-07-23T13:45:54;3.42;;;3.17;;
6378;SDS011;3222;48.858;10.128;2022-07-23T13:48:20;3.92;;;3.45;;
6378;SDS011;3222;48.858;10.128;2022-07-23T13:50:46;3.63;;;3.33;;
6378;SDS011;3222;48.858;10.128;2022-07-23T13:53:15;3.75;;;3.45;;
6378;SDS011;3222;48.858;10.128;2022-07-23T13:55:46;3.28;;;3.08;;
6378;SDS011;3222;48.858;10.128;2022-07-23T13:58:13;3.38;;;3.15;;
6378;SDS011;3222;48.858;10.128;2022-07-23T14:00:41;3.40;;;3.20;;
6378;SDS011;3222;48.858;10.128;2022-07-23T14:03:08;3.70;;;3.17;;
6378;SDS011;3222;48.858;10.128;2022-07-23T14:05:34;4.03;;;3.60;;
6378;SDS011;3222;48.858;10.128;2022-07-23T14:08:00;4.97;;;3.47;;
6378;SDS011;3222;48.858;10.128;2022-07-23T14:10:26;3.90;;;3.28;;
6378;SDS011;3222;48.858;10.128;2022-07-23T14:12:52;3.60;;;3.30;;
6378;SDS011;3222;48.858;10.128;2022-07-23T14:15:21;3.95;;;3.58;;
6378;SDS011;3222;48.858;10.128;2022-07-23T14:17:47;3.40;;;3.10;;
6378;SDS011;3222;48.858;10.128;2022-07-23T14:20:13;4.30;;;3.75;;
6378;SDS011;3222;48.858;10.128;2022-07-23T14:22:39;5.53;;;3.58;;
6378;SDS011;3222;48.858;10.128;2022-07-23T14:25:06;3.38;;;3.08;;
6378;SDS011;3222;48.858;10.128;2022-07-23T14:27:33;3.92;;;3.38;;
6378;SDS011;3222;48.858;10.128;2022-07-23T14:29:59;3.40;;;3.20;;
6378;SDS011;3222;48.858;10.128;2022-07-23T14:32:25;4.00;;;3.50;;
6378;SDS011;3222;48.858;10.128;2022-07-23T14:34:51;3.60;;;3.30;;
6378;SDS011;3222;48.858;10.128;2022-07-23T14:37:17;3.72;;;3.30;;
6378;SDS011;3222;48.858;10.128;2022-07-23T14:39:43;3.30;;;3.10;;
6378;SDS011;3222;48.858;10.128;2022-07-23T14:42:10;3.45;;;3.15;;
6378;SDS011;3222;48.858;10.128;2022-07-23T14:44:36;3.60;;;3.25;;
6378;SDS011;3222;48.858;10.128;2022-07-23T14:47:03;3.22;;;3.03;;
6378;SDS011;3222;48.858;10.128;2022-07-23T14:49:30;3.35;;;2.92;;
6378;SDS011;3222;48.858;10.128;2022-07-23T14:51:56;3.20;;;3.00;;
6378;SDS011;3222;48.858;10.128;2022-07-23T14:54:22;3.83;;;3.53;;
6378;SDS011;3222;48.858;10.128;2022-07-23T14:56:51;3.58;;;3.28;;
6378;SDS011;3222;48.858;10.128;2022-07-23T14:59:17;3.92;;;3.63;;
6378;SDS011;3222;48.858;10.128;2022-07-23T15:01:42;4.15;;;3.30;;
6378;SDS011;3222;48.858;10.128;2022-07-23T15:04:08;3.70;;;3.40;;
6378;SDS011;3222;48.858;10.128;2022-07-23T15:06:34;3.78;;;3.47;;
6378;SDS011;3222;48.858;10.128;2022-07-23T15:08:59;3.58;;;3.28;;
6378;SDS011;3222;48.858;10.128;2022-07-23T15:11:26;5.35;;;3.83;;
6378;SDS011;3222;48.858;10.128;2022-07-23T15:13:54;4.60;;;3.53;;
6378;SDS011;3222;48.858;10.128;2022-07-23T15:16:20;3.75;;;3.40;;
6378;SDS011;3222;48.858;10.128;2022-07-23T15:18:46;3.90;;;3.50;;
6378;SDS011;3222;48.858;10.128;2022-07-23T15:21:11;3.75;;;3.35;;
6378;SDS011;3222;48.858;10.128;2022-07-23T15:23:37;3.58;;;3.28;;
6378;SDS011;3222;48.858;10.128;2022-07-23T15:26:05;3.28;;;2.97;;
6378;SDS011;3222;48.858;10.128;2022-07-23T15:28:31;4.05;;;3.58;;
6378;SDS011;3222;48.858;10.128;2022-07-23T15:30:57;3.85;;;3.53;;
6378;SDS011;3222;48.858;10.128;2022-07-23T15:33:23;3.97;;;3.58;;
6378;SDS011;3222;48.858;10.128;2022-07-23T15:35:48;4.10;;;3.80;;
6378;SDS011;3222;48.858;10.128;2022-07-23T15:38:14;4.07;;;3.67;;
6378;SDS011;3222;48.858;10.128;2022-07-23T15:40:40;4.00;;;3.60;;
6378;SDS011;3222;48.858;10.128;2022-07-23T15:43:06;6.53;;;3.97;;